Time;durP1;ratioP1;P1;durP2;ratioP2;P2;SDS_P1;SDS_P2;PMS_P1;PMS_P2;Temp;Humidity;BMP_temperature;BMP_pressure;BME280_temperature;BME280_humidity;BME280_pressure;Samples;Min_cycle;Max_cycle;Signal;HPM_P1;HPM_P2
2021/03/18 00:00:54;;;;;;;9.02;5.15;;;4.20;69.80;;;;;;5046402;28;20072;-60
2021/03/18 00:03:26;;;;;;;7.75;5.07;;;4.10;69.50;;;;;;5044791;28;20037;-59
2021/03/18 00:05:52;;;;;;;9.10;5.20;;;4.20;69.60;;;;;;5045219;28;20100;-59
2021/03/18 00:08:18;;;;;;;6.78;4.65;;;4.30;70.00;;;;;;5044754;28;20061;-59
2021/03/18 00:10:44;;;;;;;7.50;4.88;;;4.30;69.80;;;;;;5044671;28;20104;-60
2021/03/18 00:13:10;;;;;;;10.48;5.78;;;4.20;69.50;;;;;;5045496;28;20385;-60
2021/03/18 00:15:35;;;;;;;9.18;4.88;;;3.90;69.20;;;;;;5044050;28;20037;-60
2021/03/18 00:18:01;;;;;;;10.38;5.80;;;3.90;69.80;;;;;;5044846;28;20060;-60
2021/03/18 00:20:27;;;;;;;8.35;5.00;;;3.90;70.10;;;;;;5035911;28;20110;-59
2021/03/18 00:22:52;;;;;;;7.90;5.15;;;4.00;70.30;;;;;;5028464;28;20037;-60
2021/03/18 00:25:18;;;;;;;9.57;5.15;;;3.90;69.80;;;;;;5046245;28;20084;-60
2021/03/18 00:27:44;;;;;;;8.73;5.80;;;4.00;70.60;;;;;;5044951;28;20037;-59
2021/03/18 00:30:11;;;;;;;9.27;5.05;;;4.00;70.30;;;;;;5044561;28;20046;-60
2021/03/18 00:32:37;;;;;;;6.65;4.85;;;4.00;70.40;;;;;;5044549;28;20087;-61
2021/03/18 00:35:04;;;;;;;8.00;5.22;;;4.20;70.70;;;;;;5044440;28;20041;-59
2021/03/18 00:37:29;;;;;;;9.52;5.55;;;4.20;69.70;;;;;;5044471;28;20033;-60
2021/03/18 00:39:55;;;;;;;9.75;5.55;;;4.10;69.80;;;;;;5034136;28;20044;-60
2021/03/18 00:42:21;;;;;;;9.50;5.20;;;4.10;69.90;;;;;;5043992;28;20105;-60
2021/03/18 00:44:47;;;;;;;9.93;5.60;;;4.10;69.70;;;;;;5044486;28;20376;-60
2021/03/18 00:47:13;;;;;;;11.75;5.60;;;4.00;69.60;;;;;;5045552;28;20088;-60
2021/03/18 00:49:38;;;;;;;8.10;5.50;;;4.10;70.00;;;;;;5044456;28;20119;-60
2021/03/18 00:52:04;;;;;;;10.48;5.82;;;4.00;70.00;;;;;;5043872;28;20037;-59
2021/03/18 00:54:29;;;;;;;9.75;5.55;;;3.90;70.00;;;;;;5042777;28;20323;-60
2021/03/18 00:56:55;;;;;;;9.73;6.07;;;3.90;69.80;;;;;;5043827;28;20030;-60
2021/03/18 00:59:21;;;;;;;10.50;5.68;;;3.80;69.50;;;;;;5045323;28;20036;-60
2021/03/18 01:01:47;;;;;;;10.75;5.50;;;3.70;69.50;;;;;;5043539;28;20112;-60
2021/03/18 01:04:12;;;;;;;8.75;5.72;;;3.70;69.90;;;;;;5043540;28;20025;-60
2021/03/18 01:06:38;;;;;;;9.93;5.93;;;3.80;70.30;;;;;;5043861;28;20033;-60
2021/03/18 01:09:04;;;;;;;14.20;5.88;;;3.70;70.00;;;;;;5043894;28;20041;-60
2021/03/18 01:11:32;;;;;;;10.90;5.85;;;3.70;70.00;;;;;;5043739;28;20032;-60
2021/03/18 01:13:59;;;;;;;13.35;6.13;;;3.60;70.00;;;;;;5045614;28;20361;-60
2021/03/18 01:16:30;;;;;;;9.18;5.63;;;3.60;70.10;;;;;;5043938;28;20105;-60
2021/03/18 01:19:00;;;;;;;9.67;6.43;;;3.60;69.90;;;;;;5043588;28;20042;-60
2021/03/18 01:21:31;;;;;;;9.10;5.70;;;3.50;69.70;;;;;;5043264;28;20341;-60
2021/03/18 01:23:57;;;;;;;;;;;3.40;69.70;;;;;;5043775;28;20037;-60
2021/03/18 01:26:23;;;;;;;8.63;5.43;;;3.30;70.00;;;;;;5044861;28;19901;-60
2021/03/18 01:28:48;;;;;;;11.63;5.75;;;3.30;70.00;;;;;;5043130;28;20044;-60
2021/03/18 01:31:14;;;;;;;9.65;6.05;;;3.30;70.20;;;;;;5043447;28;20305;-60
2021/03/18 01:33:40;;;;;;;9.95;6.20;;;3.30;69.70;;;;;;5042670;28;20040;-60
2021/03/18 01:36:07;;;;;;;9.57;5.85;;;3.30;69.80;;;;;;5043050;28;20053;-60
2021/03/18 01:38:33;;;;;;;9.38;6.07;;;3.40;70.10;;;;;;5042973;28;20052;-60
2021/03/18 01:40:59;;;;;;;12.50;6.43;;;3.30;70.10;;;;;;5044778;28;20036;-60
2021/03/18 01:43:28;;;;;;;11.82;7.05;;;3.30;70.50;;;;;;5043014;28;20041;-60
2021/03/18 01:45:53;;;;;;;11.27;5.97;;;3.30;70.40;;;;;;5042979;28;20034;-60
2021/03/18 01:48:20;;;;;;;10.60;6.47;;;3.40;70.20;;;;;;5043091;28;20056;-60
2021/03/18 01:50:45;;;;;;;10.35;6.22;;;3.40;70.50;;;;;;5042854;28;20052;-60
2021/03/18 01:53:11;;;;;;;10.57;6.95;;;3.60;70.30;;;;;;5044656;28;20255;-60
2021/03/18 01:55:41;;;;;;;10.20;6.47;;;3.50;69.80;;;;;;5043204;28;20033;-59
2021/03/18 01:58:10;;;;;;;12.02;6.60;;;3.60;70.00;;;;;;5043020;28;20037;-60
2021/03/18 02:00:36;;;;;;;11.38;6.20;;;3.50;69.90;;;;;;5042819;28;20052;-60
2021/03/18 02:03:02;;;;;;;11.98;7.13;;;3.60;70.00;;;;;;5042895;28;20036;-60
2021/03/18 02:05:28;;;;;;;10.98;6.28;;;3.60;70.80;;;;;;5042610;28;20056;-60
2021/03/18 02:07:54;;;;;;;13.18;7.03;;;3.70;70.40;;;;;;5044458;28;20021;-59
2021/03/18 02:10:21;;;;;;;12.63;7.38;;;3.70;70.30;;;;;;5041988;28;20044;-60
2021/03/18 02:12:47;;;;;;;11.60;7.00;;;3.70;70.50;;;;;;5042807;28;20037;-60
2021/03/18 02:15:13;;;;;;;12.27;6.97;;;3.80;70.50;;;;;;5036207;28;20329;-60
2021/03/18 02:18:11;;;;;;;10.70;6.72;;;3.70;70.40;;;;;;5024431;28;20034;-60
2021/03/18 02:20:47;;;;;;;12.73;6.90;;;3.80;70.60;;;;;;5041382;28;20352;-60
2021/03/18 02:23:30;;;;;;;15.88;7.68;;;3.70;70.40;;;;;;5044034;28;20037;-60
2021/03/18 02:26:08;;;;;;;14.07;7.43;;;3.70;69.90;;;;;;5043303;28;20108;-60
2021/03/18 02:28:47;;;;;;;15.88;8.30;;;3.60;69.30;;;;;;5042642;28;20044;-60
2021/03/18 02:31:16;;;;;;;12.05;6.72;;;3.60;69.90;;;;;;5041645;28;20037;-60
2021/03/18 02:33:51;;;;;;;16.13;7.85;;;3.30;69.20;;;;;;5041352;28;20044;-59
2021/03/18 02:36:20;;;;;;;15.10;7.82;;;3.30;69.70;;;;;;5042281;28;20096;-60
2021/03/18 02:38:50;;;;;;;12.85;7.03;;;3.40;69.60;;;;;;5041416;28;20051;-60
2021/03/18 02:41:18;;;;;;;16.00;7.88;;;3.20;69.30;;;;;;5043057;28;20060;-60
2021/03/18 02:44:04;;;;;;;16.60;7.80;;;3.20;69.40;;;;;;5041294;28;20033;-60
2021/03/18 02:46:29;;;;;;;13.88;7.60;;;3.30;69.50;;;;;;5013501;28;20038;-60
2021/03/18 02:48:58;;;;;;;15.25;8.20;;;3.30;69.60;;;;;;5038584;28;20037;-60
2021/03/18 02:51:24;;;;;;;12.50;7.53;;;3.30;69.60;;;;;;5045337;28;20083;-60
2021/03/18 02:53:50;;;;;;;15.00;7.57;;;3.30;69.80;;;;;;5029150;28;20029;-60
2021/03/18 02:56:16;;;;;;;16.13;8.15;;;3.40;69.80;;;;;;5047887;28;20093;-60
2021/03/18 02:58:42;;;;;;;15.10;8.07;;;3.40;70.30;;;;;;5046472;28;20040;-60
2021/03/18 03:01:08;;;;;;;19.35;8.70;;;3.50;70.30;;;;;;5044660;28;20069;-60
2021/03/18 03:03:34;;;;;;;17.73;8.63;;;3.60;70.30;;;;;;5045941;28;20237;-60
2021/03/18 03:06:00;;;;;;;16.33;8.63;;;3.50;69.80;;;;;;5023660;28;20030;-60
2021/03/18 03:08:26;;;;;;;17.50;8.73;;;3.40;69.30;;;;;;5026339;28;20073;-61
2021/03/18 03:10:53;;;;;;;16.13;8.50;;;3.30;69.30;;;;;;5029925;28;20085;-60
2021/03/18 03:13:18;;;;;;;15.75;8.63;;;3.40;69.30;;;;;;5045836;28;20044;-60
2021/03/18 03:15:44;;;;;;;16.23;8.27;;;3.40;69.70;;;;;;5044632;28;20045;-60
2021/03/18 03:18:10;;;;;;;16.55;8.82;;;3.40;69.60;;;;;;5044509;28;20045;-60
2021/03/18 03:20:37;;;;;;;15.18;8.40;;;3.40;69.20;;;;;;5045790;28;20037;-60
2021/03/18 03:23:04;;;;;;;17.33;8.77;;;3.50;69.20;;;;;;5047189;28;20217;-60
2021/03/18 03:25:30;;;;;;;16.83;9.38;;;3.50;69.70;;;;;;5044691;28;20034;-60
2021/03/18 03:27:55;;;;;;;16.83;8.43;;;3.40;68.70;;;;;;5045884;28;20074;-60
2021/03/18 03:30:22;;;;;;;17.42;9.43;;;3.40;68.70;;;;;;5044567;28;20044;-60
2021/03/18 03:32:47;;;;;;;19.10;9.98;;;3.40;68.70;;;;;;5042740;28;20231;-60
2021/03/18 03:35:14;;;;;;;19.45;10.00;;;3.40;68.80;;;;;;5026109;28;20041;-59
2021/03/18 03:37:40;;;;;;;18.10;9.38;;;3.40;69.50;;;;;;5044368;28;20104;-59
2021/03/18 03:40:06;;;;;;;18.70;9.52;;;3.40;69.10;;;;;;5045288;28;20041;-60
2021/03/18 03:42:32;;;;;;;19.17;9.02;;;3.40;69.50;;;;;;5045420;28;20038;-60
2021/03/18 03:44:58;;;;;;;21.15;10.43;;;3.40;69.50;;;;;;5045231;28;20040;-60
2021/03/18 03:47:23;;;;;;;17.73;10.02;;;3.40;69.50;;;;;;5047009;28;20344;-60
2021/03/18 03:49:49;;;;;;;19.85;10.90;;;3.30;69.30;;;;;;5045064;28;20038;-60
2021/03/18 03:52:24;;;;;;;19.67;9.65;;;3.40;69.80;;;;;;5045415;28;20034;-60
2021/03/18 03:55:14;;;;;;;18.45;10.10;;;3.50;69.60;;;;;;5016754;28;20038;-60
2021/03/18 03:57:49;;;;;;;21.73;10.20;;;3.40;69.20;;;;;;5033555;28;20075;-59
2021/03/18 04:00:15;;;;;;;22.95;10.27;;;3.40;69.30;;;;;;5044920;28;20037;-60
2021/03/18 04:02:42;;;;;;;17.70;10.45;;;3.40;69.60;;;;;;5044309;28;20033;-60
2021/03/18 04:05:08;;;;;;;17.08;9.75;;;3.50;69.80;;;;;;5045640;28;20182;-60
2021/03/18 04:07:36;;;;;;;17.83;10.00;;;3.40;69.10;;;;;;5043995;28;20213;-60
2021/03/18 04:10:02;;;;;;;20.75;10.18;;;3.40;69.40;;;;;;5044839;28;20059;-60
2021/03/18 04:12:37;;;;;;;19.17;10.35;;;3.40;69.40;;;;;;5027154;28;20048;-60
2021/03/18 04:15:07;;;;;;;20.63;10.93;;;3.40;69.90;;;;;;5044685;28;20318;-60
2021/03/18 04:17:34;;;;;;;23.20;11.35;;;3.60;70.10;;;;;;5045558;28;20056;-60
2021/03/18 04:20:01;;;;;;;21.73;11.07;;;3.40;69.30;;;;;;5028812;28;20037;-60
2021/03/18 04:22:28;;;;;;;21.10;11.32;;;3.40;70.50;;;;;;5044000;28;20079;-60
2021/03/18 04:24:53;;;;;;;19.17;11.30;;;3.50;69.90;;;;;;5044792;28;20299;-60
2021/03/18 04:27:19;;;;;;;22.80;11.27;;;3.50;69.10;;;;;;5043450;28;20034;-60
2021/03/18 04:29:45;;;;;;;20.75;10.82;;;3.40;69.10;;;;;;5044354;28;20336;-59
2021/03/18 04:32:11;;;;;;;21.02;10.75;;;3.50;68.90;;;;;;5046206;28;20025;-59
2021/03/18 04:34:37;;;;;;;20.38;11.35;;;3.50;69.30;;;;;;5009482;28;20050;-60
2021/03/18 04:37:03;;;;;;;19.15;10.85;;;3.50;69.40;;;;;;5026765;28;20041;-59
2021/03/18 04:39:29;;;;;;;19.08;10.40;;;3.50;69.70;;;;;;5043369;28;20060;-59
2021/03/18 04:41:54;;;;;;;22.52;11.65;;;3.50;70.10;;;;;;5042832;28;20037;-60
2021/03/18 04:44:20;;;;;;;20.33;11.35;;;3.50;69.20;;;;;;5045844;28;20063;-60
2021/03/18 04:46:46;;;;;;;22.08;11.75;;;3.40;69.60;;;;;;5043093;28;20341;-60
2021/03/18 04:49:13;;;;;;;20.95;10.88;;;3.40;69.40;;;;;;5044361;28;20075;-60
2021/03/18 04:51:38;;;;;;;20.83;11.63;;;3.40;70.20;;;;;;5016659;28;20105;-60
2021/03/18 04:54:04;;;;;;;21.23;12.02;;;3.40;69.60;;;;;;5026367;28;20057;-60
2021/03/18 04:56:30;;;;;;;21.50;11.63;;;3.40;70.00;;;;;;5042622;28;20325;-60
2021/03/18 04:58:55;;;;;;;21.15;11.77;;;3.30;69.60;;;;;;5045304;28;20252;-60
2021/03/18 05:01:21;;;;;;;22.15;12.32;;;3.40;70.30;;;;;;5010281;28;20094;-59
2021/03/18 05:03:47;;;;;;;21.40;11.60;;;3.40;69.60;;;;;;5022649;28;20042;-60
2021/03/18 05:06:13;;;;;;;20.83;11.45;;;3.40;69.60;;;;;;5029082;28;20053;-59
2021/03/18 05:08:39;;;;;;;23.48;11.57;;;3.40;68.80;;;;;;5042602;28;20260;-59
2021/03/18 05:11:04;;;;;;;22.48;12.05;;;3.30;68.70;;;;;;5044041;28;20045;-60
2021/03/18 05:13:30;;;;;;;25.00;11.75;;;3.40;69.30;;;;;;5043774;28;20033;-60
2021/03/18 05:15:56;;;;;;;21.15;11.40;;;3.20;69.20;;;;;;5014209;28;20042;-59
2021/03/18 05:18:22;;;;;;;23.77;12.13;;;3.30;69.80;;;;;;5031824;28;20064;-60
2021/03/18 05:20:48;;;;;;;20.75;11.80;;;3.30;70.00;;;;;;5025825;28;20037;-60
2021/03/18 05:23:14;;;;;;;21.15;11.35;;;3.40;70.10;;;;;;5044923;28;20093;-60
2021/03/18 05:25:39;;;;;;;22.08;11.85;;;3.30;70.00;;;;;;5043564;28;20044;-60
2021/03/18 05:28:05;;;;;;;23.27;11.80;;;3.30;69.50;;;;;;5043553;28;20268;-59
2021/03/18 05:30:31;;;;;;;28.30;13.70;;;3.40;70.30;;;;;;5043573;28;20321;-59
2021/03/18 05:32:57;;;;;;;25.65;12.88;;;3.40;70.10;;;;;;5043235;28;20034;-60
2021/03/18 05:35:23;;;;;;;24.13;12.35;;;3.30;69.80;;;;;;5045268;28;20041;-59
2021/03/18 05:37:48;;;;;;;22.50;12.23;;;3.30;69.70;;;;;;5043217;28;20037;-59
2021/03/18 05:40:15;;;;;;;23.80;12.48;;;3.40;69.80;;;;;;5043284;28;20264;-60
2021/03/18 05:42:40;;;;;;;24.65;12.60;;;3.40;69.90;;;;;;5043070;28;20034;-60
2021/03/18 05:45:08;;;;;;;21.63;12.00;;;3.40;70.60;;;;;;5042873;28;20033;-59
2021/03/18 05:47:34;;;;;;;24.55;13.07;;;3.30;70.80;;;;;;5042762;28;20053;-60
2021/03/18 05:50:00;;;;;;;24.13;13.00;;;3.40;71.20;;;;;;5044537;28;20040;-59
2021/03/18 05:52:26;;;;;;;21.42;12.20;;;3.50;71.30;;;;;;5043274;28;20355;-60
2021/03/18 05:54:52;;;;;;;23.33;12.68;;;3.40;71.20;;;;;;5042825;28;20041;-59
2021/03/18 05:57:17;;;;;;;25.08;12.93;;;3.40;70.80;;;;;;5042712;28;20107;-60
2021/03/18 05:59:43;;;;;;;25.33;14.10;;;3.50;71.20;;;;;;5024985;28;20033;-60
2021/03/18 06:02:09;;;;;;;24.38;12.27;;;3.40;71.20;;;;;;5044081;28;20107;-60
2021/03/18 06:04:35;;;;;;;23.30;12.45;;;3.40;71.60;;;;;;5042763;28;20048;-60
2021/03/18 06:07:00;;;;;;;26.10;12.77;;;3.50;71.50;;;;;;5042363;28;20040;-60
2021/03/18 06:09:26;;;;;;;24.33;13.23;;;3.50;71.40;;;;;;5042641;28;20060;-59
2021/03/18 06:11:51;;;;;;;21.63;12.50;;;3.40;71.20;;;;;;5041461;28;20053;-59
2021/03/18 06:14:17;;;;;;;22.08;12.02;;;3.40;71.50;;;;;;5043294;28;20085;-60
2021/03/18 06:16:42;;;;;;;26.88;13.40;;;3.50;71.60;;;;;;5042996;28;20037;-60
2021/03/18 06:19:08;;;;;;;26.00;13.60;;;3.60;71.90;;;;;;5010750;28;20233;-60
2021/03/18 06:21:48;;;;;;;28.40;12.57;;;3.60;71.80;;;;;;5031899;28;20178;-59
2021/03/18 06:24:14;;;;;;;23.75;13.48;;;3.50;71.90;;;;;;5042547;28;20057;-59
2021/03/18 06:26:39;;;;;;;26.63;13.15;;;3.50;72.00;;;;;;5042277;28;20041;-59
2021/03/18 06:29:25;;;;;;;24.10;12.98;;;3.60;71.90;;;;;;5044106;28;20021;-60
2021/03/18 06:31:51;;;;;;;29.10;14.55;;;3.60;71.70;;;;;;5043211;28;20037;-59
2021/03/18 06:34:56;;;;;;;26.10;14.27;;;3.60;72.00;;;;;;5041442;28;20071;-59
2021/03/18 06:37:38;;;;;;;28.90;14.40;;;3.60;71.80;;;;;;5041988;28;20194;-60
2021/03/18 06:40:14;;;;;;;24.60;14.02;;;3.70;72.10;;;;;;5042619;28;20061;-59
2021/03/18 06:42:51;;;;;;;31.77;14.90;;;3.70;72.10;;;;;;5032009;28;20075;-60
2021/03/18 06:45:17;;;;;;;31.83;14.73;;;3.80;72.10;;;;;;5029438;28;20033;-60
2021/03/18 06:47:43;;;;;;;28.88;14.45;;;3.90;72.40;;;;;;5041763;28;20030;-59
2021/03/18 06:50:10;;;;;;;26.40;14.23;;;3.90;72.60;;;;;;5043831;28;20045;-60
2021/03/18 06:52:39;;;;;;;31.85;16.05;;;3.80;71.90;;;;;;5041684;28;20164;-60
2021/03/18 06:55:10;;;;;;;34.15;15.77;;;3.70;71.70;;;;;;5042490;28;20037;-59
2021/03/18 06:57:36;;;;;;;23.90;14.35;;;3.80;71.90;;;;;;5042508;28;20045;-59
2021/03/18 07:00:07;;;;;;;31.25;15.98;;;3.70;71.70;;;;;;5041752;28;20048;-58
2021/03/18 07:02:39;;;;;;;35.33;16.50;;;3.90;72.00;;;;;;5042186;28;20367;-59
2021/03/18 07:05:05;;;;;;;30.40;15.98;;;3.90;71.60;;;;;;5042510;28;20036;-59
2021/03/18 07:07:31;;;;;;;29.45;16.13;;;3.80;71.10;;;;;;5007636;28;20321;-59
2021/03/18 07:09:57;;;;;;;27.48;16.05;;;3.60;70.90;;;;;;5017256;28;20040;-58
2021/03/18 07:12:30;;;;;;;28.23;16.25;;;3.60;71.10;;;;;;5042174;28;20040;-58
2021/03/18 07:14:58;;;;;;;29.75;16.23;;;3.50;71.50;;;;;;5041800;28;20217;-58
2021/03/18 07:17:42;;;;;;;30.58;16.60;;;3.40;71.30;;;;;;5043398;28;20029;-58
2021/03/18 07:20:16;;;;;;;28.40;15.15;;;3.40;71.30;;;;;;5041547;28;20033;-57
2021/03/18 07:22:51;;;;;;;33.95;16.98;;;3.70;72.20;;;;;;5040883;28;20240;-58
2021/03/18 07:25:18;;;;;;;32.63;17.42;;;3.90;72.20;;;;;;5042127;28;20351;-58
2021/03/18 07:27:49;;;;;;;30.77;16.33;;;3.70;70.90;;;;;;5041909;28;20249;-58
2021/03/18 07:30:29;;;;;;;33.85;17.45;;;3.80;71.50;;;;;;5042157;28;20113;-59
2021/03/18 07:32:57;;;;;;;31.08;16.58;;;3.90;71.70;;;;;;5044794;28;20037;-58
2021/03/18 07:35:23;;;;;;;29.17;16.70;;;3.90;71.30;;;;;;5046639;28;20065;-59
2021/03/18 07:37:49;;;;;;;31.92;17.65;;;3.80;71.20;;;;;;5045686;28;20203;-58
2021/03/18 07:40:15;;;;;;;32.42;16.95;;;3.80;71.30;;;;;;5045006;28;20083;-58
2021/03/18 07:42:40;;;;;;;30.63;16.42;;;3.80;70.90;;;;;;5045111;28;20095;-58
2021/03/18 07:45:07;;;;;;;26.52;16.10;;;3.90;71.10;;;;;;5038363;28;20033;-58
2021/03/18 07:47:34;;;;;;;30.25;16.48;;;3.90;70.00;;;;;;5026001;28;20052;-59
2021/03/18 07:49:59;;;;;;;27.30;16.23;;;4.00;69.80;;;;;;5029575;28;20037;-58
2021/03/18 07:52:26;;;;;;;29.48;16.60;;;3.90;69.70;;;;;;5045181;28;20040;-58
2021/03/18 07:54:52;;;;;;;32.05;17.95;;;3.90;70.00;;;;;;5044015;28;20099;-59
2021/03/18 07:57:18;;;;;;;28.70;16.58;;;3.90;70.40;;;;;;5036664;28;20038;-58
2021/03/18 07:59:44;;;;;;;29.33;16.65;;;3.90;70.40;;;;;;5027299;28;20073;-58
2021/03/18 08:02:17;;;;;;;32.50;16.33;;;3.90;70.90;;;;;;5046228;28;20116;-59
2021/03/18 08:04:47;;;;;;;31.75;16.00;;;4.00;71.10;;;;;;5045132;28;20038;-58
2021/03/18 08:07:36;;;;;;;28.85;15.82;;;3.90;70.30;;;;;;5044741;28;20101;-58
2021/03/18 08:10:02;;;;;;;30.30;15.75;;;3.90;70.00;;;;;;5044809;28;20057;-58
2021/03/18 08:12:47;;;;;;;29.63;17.23;;;3.90;70.50;;;;;;5044660;28;20049;-58
2021/03/18 08:15:20;;;;;;;28.08;16.52;;;4.00;71.30;;;;;;5038413;28;20360;-58
2021/03/18 08:17:46;;;;;;;28.67;16.50;;;4.00;70.90;;;;;;5027315;28;20046;-58
2021/03/18 08:20:12;;;;;;;28.42;16.73;;;4.00;70.90;;;;;;5046224;28;20295;-58
2021/03/18 08:22:38;;;;;;;26.85;16.63;;;3.90;70.40;;;;;;5044817;28;20037;-58
2021/03/18 08:25:22;;;;;;;30.55;16.08;;;3.90;70.90;;;;;;5044255;28;20041;-58
2021/03/18 08:27:48;;;;;;;27.48;15.70;;;3.90;70.50;;;;;;5044651;28;20043;-58
2021/03/18 08:30:22;;;;;;;30.35;17.25;;;3.90;70.20;;;;;;5019874;28;20046;-58
2021/03/18 08:32:48;;;;;;;30.70;15.90;;;4.00;69.80;;;;;;5027827;28;20095;-58
2021/03/18 08:35:25;;;;;;;32.88;16.80;;;3.90;69.90;;;;;;5045056;28;20033;-58
2021/03/18 08:37:51;;;;;;;28.50;16.98;;;4.00;70.70;;;;;;5024753;28;20077;-58
2021/03/18 08:40:19;;;;;;;30.10;15.75;;;4.10;70.60;;;;;;5039348;28;20045;-59
2021/03/18 08:42:49;;;;;;;25.95;15.10;;;4.20;69.50;;;;;;5044269;28;20075;-58
2021/03/18 08:45:20;;;;;;;27.08;16.00;;;4.40;69.40;;;;;;5043977;28;20057;-58
2021/03/18 08:47:51;;;;;;;27.80;15.38;;;4.50;69.60;;;;;;5043775;28;21049;-59
2021/03/18 08:50:26;;;;;;;28.40;15.15;;;4.60;68.90;;;;;;5045927;28;20026;-58
2021/03/18 08:52:52;;;;;;;25.95;14.13;;;4.90;69.70;;;;;;5024335;28;20038;-58
2021/03/18 08:55:50;;;;;;;25.20;14.57;;;5.10;68.30;;;;;;5039620;28;20037;-58
2021/03/18 08:58:16;;;;;;;22.77;13.45;;;5.40;68.10;;;;;;4991352;28;20034;-58
2021/03/18 09:00:42;;;;;;;23.05;14.48;;;5.50;66.80;;;;;;5034283;28;20103;-58
2021/03/18 09:03:08;;;;;;;23.35;14.10;;;5.40;66.20;;;;;;5043899;28;20217;-58
2021/03/18 09:05:34;;;;;;;24.95;14.85;;;5.40;67.30;;;;;;5042954;28;20036;-59
2021/03/18 09:08:01;;;;;;;24.48;14.50;;;5.20;65.50;;;;;;5025383;28;20030;-58
2021/03/18 09:10:33;;;;;;;28.88;15.02;;;5.30;65.10;;;;;;5040570;28;20317;-58
2021/03/18 09:13:03;;;;;;;24.85;14.05;;;5.20;66.20;;;;;;5043699;28;20213;-58
2021/03/18 09:15:35;;;;;;;25.63;14.18;;;5.20;66.70;;;;;;5034817;28;20104;-58
2021/03/18 09:18:14;;;;;;;24.45;14.23;;;5.20;65.70;;;;;;5028290;28;20116;-58
2021/03/18 09:20:41;;;;;;;23.30;13.52;;;5.20;67.40;;;;;;5043483;28;20029;-58
2021/03/18 09:23:11;;;;;;;21.27;13.25;;;5.40;67.40;;;;;;5045079;28;20037;-58
2021/03/18 09:25:37;;;;;;;22.63;13.27;;;5.20;66.20;;;;;;5043704;28;20212;-58
2021/03/18 09:28:03;;;;;;;20.65;12.48;;;5.30;65.60;;;;;;5043130;28;20092;-58
2021/03/18 09:30:30;;;;;;;19.27;12.43;;;5.40;66.00;;;;;;5042984;28;20228;-59
2021/03/18 09:32:56;;;;;;;20.80;11.98;;;5.40;65.70;;;;;;5043376;28;20100;-60
2021/03/18 09:35:22;;;;;;;19.85;12.20;;;5.40;64.70;;;;;;5044614;28;20253;-59
2021/03/18 09:37:48;;;;;;;22.00;12.60;;;5.60;65.90;;;;;;5043486;28;20329;-58
2021/03/18 09:40:14;;;;;;;21.13;11.23;;;5.60;64.30;;;;;;5043507;28;20105;-59
2021/03/18 09:42:40;;;;;;;20.65;11.32;;;5.50;64.40;;;;;;5033103;28;20034;-58
2021/03/18 09:45:06;;;;;;;19.90;10.85;;;5.60;65.30;;;;;;5028681;28;20035;-59
2021/03/18 09:47:32;;;;;;;21.40;10.77;;;5.70;64.80;;;;;;5042753;28;20026;-59
2021/03/18 09:49:58;;;;;;;17.35;10.30;;;5.50;64.10;;;;;;5044270;28;20033;-59
2021/03/18 09:52:27;;;;;;;18.67;10.60;;;5.70;64.60;;;;;;5043152;28;20209;-58
2021/03/18 09:54:55;;;;;;;16.70;9.70;;;5.70;63.60;;;;;;5042225;28;20337;-59
2021/03/18 09:57:21;;;;;;;16.15;10.18;;;5.80;64.10;;;;;;5042690;28;20277;-59
2021/03/18 09:59:51;;;;;;;16.77;9.75;;;5.80;63.60;;;;;;5039649;28;20105;-59
2021/03/18 10:02:17;;;;;;;17.73;10.77;;;5.90;63.70;;;;;;5023165;28;20042;-59
2021/03/18 10:04:43;;;;;;;16.95;10.18;;;6.10;63.00;;;;;;5023201;28;20206;-59
2021/03/18 10:07:08;;;;;;;17.23;10.40;;;6.10;63.00;;;;;;5036781;28;20040;-59
2021/03/18 10:09:35;;;;;;;16.15;10.90;;;6.10;63.00;;;;;;5042475;28;20065;-59
2021/03/18 10:12:02;;;;;;;23.90;12.43;;;6.00;62.80;;;;;;5042424;28;20202;-59
2021/03/18 10:14:54;;;;;;;19.50;12.00;;;5.90;63.70;;;;;;5042713;28;20052;-59
2021/03/18 10:17:25;;;;;;;22.50;12.63;;;5.90;63.90;;;;;;5043021;28;20029;-59
2021/03/18 10:20:01;;;;;;;21.38;12.20;;;5.90;64.20;;;;;;5043336;28;20029;-58
2021/03/18 10:22:32;;;;;;;21.58;12.93;;;6.00;63.70;;;;;;5025805;28;20044;-60
2021/03/18 10:25:04;;;;;;;22.38;13.55;;;6.10;63.90;;;;;;5035367;28;20033;-59
2021/03/18 10:27:31;;;;;;;21.55;12.73;;;6.10;63.40;;;;;;5042249;28;20034;-59
2021/03/18 10:30:05;;;;;;;21.40;13.15;;;6.20;63.00;;;;;;5042369;28;20094;-59
2021/03/18 10:32:31;;;;;;;21.23;12.55;;;6.10;62.60;;;;;;5042595;28;20193;-59
2021/03/18 10:34:57;;;;;;;22.88;12.70;;;6.20;62.70;;;;;;5042929;28;20075;-59
2021/03/18 10:37:36;;;;;;;18.50;11.13;;;6.20;62.10;;;;;;5042544;28;20236;-59
2021/03/18 10:40:16;;;;;;;20.88;13.02;;;6.00;61.80;;;;;;5042585;28;20248;-59
2021/03/18 10:42:42;;;;;;;20.40;12.75;;;6.20;62.20;;;;;;5042016;28;20057;-59
2021/03/18 10:45:22;;;;;;;21.08;12.48;;;6.40;62.10;;;;;;5037139;28;20034;-59
2021/03/18 10:47:48;;;;;;;19.75;12.57;;;6.60;61.80;;;;;;5025921;28;20320;-59
2021/03/18 10:50:15;;;;;;;17.80;11.32;;;7.10;61.10;;;;;;5043752;28;20040;-59
2021/03/18 10:52:41;;;;;;;14.75;10.05;;;7.30;59.70;;;;;;5041306;28;20049;-59
2021/03/18 10:55:07;;;;;;;18.92;10.85;;;7.30;58.00;;;;;;5041329;28;20384;-59
2021/03/18 10:57:33;;;;;;;16.15;9.77;;;7.40;57.50;;;;;;5042267;28;20033;-59
2021/03/18 10:59:59;;;;;;;18.73;10.35;;;7.70;57.80;;;;;;5041952;28;20038;-58
2021/03/18 11:02:25;;;;;;;14.27;9.23;;;7.90;59.20;;;;;;5043581;28;20033;-59
2021/03/18 11:04:55;;;;;;;12.07;7.80;;;8.20;58.20;;;;;;5042910;28;20033;-59
2021/03/18 11:07:20;;;;;;;16.88;7.78;;;8.30;55.50;;;;;;5044343;28;20037;-59
2021/03/18 11:10:13;;;;;;;12.52;7.43;;;8.40;52.50;;;;;;5045830;28;20355;-59
2021/03/18 11:12:39;;;;;;;11.55;7.80;;;8.60;52.20;;;;;;5046417;28;20034;-59
2021/03/18 11:15:06;;;;;;;17.73;10.73;;;8.90;52.40;;;;;;5045768;28;20040;-59
2021/03/18 11:17:32;;;;;;;15.23;9.68;;;9.10;54.50;;;;;;5045502;28;20029;-60
2021/03/18 11:20:18;;;;;;;17.65;9.30;;;8.80;50.10;;;;;;5047409;28;20340;-58
2021/03/18 11:22:43;;;;;;;17.25;10.48;;;8.70;50.10;;;;;;5044667;28;20026;-59
2021/03/18 11:25:09;;;;;;;13.40;9.00;;;8.60;53.10;;;;;;5045672;28;20025;-59
2021/03/18 11:27:35;;;;;;;14.20;9.25;;;8.40;51.50;;;;;;5045646;28;20034;-60
2021/03/18 11:30:01;;;;;;;13.38;8.90;;;8.20;53.20;;;;;;5045462;28;20029;-60
2021/03/18 11:32:26;;;;;;;12.55;8.05;;;8.20;51.80;;;;;;5045914;28;20340;-61
2021/03/18 11:34:56;;;;;;;11.18;7.78;;;8.00;53.80;;;;;;5046910;28;20251;-59
2021/03/18 11:37:22;;;;;;;12.23;7.85;;;7.90;54.00;;;;;;5045723;28;20209;-60
2021/03/18 11:39:48;;;;;;;12.18;8.30;;;7.80;53.50;;;;;;5034015;28;20035;-60
2021/03/18 11:42:13;;;;;;;13.35;8.18;;;7.60;54.00;;;;;;5031831;28;20049;-60
2021/03/18 11:44:39;;;;;;;13.15;8.18;;;7.60;56.20;;;;;;5045029;28;20053;-61
2021/03/18 11:47:06;;;;;;;14.20;8.57;;;7.50;56.10;;;;;;5047029;28;20212;-61
2021/03/18 11:49:31;;;;;;;12.48;8.30;;;7.40;54.70;;;;;;5028277;28;20034;-59
2021/03/18 11:51:57;;;;;;;13.00;8.20;;;7.30;55.30;;;;;;5037578;28;20076;-60
2021/03/18 11:54:22;;;;;;;16.55;9.13;;;7.30;55.90;;;;;;5044878;28;20083;-60
2021/03/18 11:56:48;;;;;;;15.00;8.77;;;7.20;56.00;;;;;;5044904;28;20040;-60
2021/03/18 11:59:13;;;;;;;12.85;8.63;;;7.20;56.20;;;;;;5046857;28;20029;-60
2021/03/18 12:01:39;;;;;;;14.63;8.60;;;7.20;56.20;;;;;;5044637;28;20053;-60
2021/03/18 12:04:05;;;;;;;15.98;8.70;;;7.40;57.30;;;;;;5044658;28;20041;-60
2021/03/18 12:06:30;;;;;;;12.55;7.97;;;7.80;57.40;;;;;;5044602;28;20336;-60
2021/03/18 12:08:56;;;;;;;14.40;7.80;;;8.10;57.20;;;;;;5041126;28;20072;-59
2021/03/18 12:11:21;;;;;;;9.63;6.72;;;8.40;55.00;;;;;;5026730;28;20033;-59
2021/03/18 12:13:47;;;;;;;11.05;6.90;;;8.50;52.60;;;;;;5044146;28;20333;-59
2021/03/18 12:16:12;;;;;;;10.05;6.93;;;8.80;53.00;;;;;;5044528;28;20044;-60
2021/03/18 12:18:38;;;;;;;10.27;6.72;;;8.90;52.80;;;;;;5044049;28;20041;-60
2021/03/18 12:21:04;;;;;;;9.45;6.60;;;9.10;51.60;;;;;;5043626;28;20067;-60
2021/03/18 12:23:30;;;;;;;9.55;6.85;;;9.20;51.70;;;;;;5044744;28;20051;-60
2021/03/18 12:25:55;;;;;;;9.27;6.35;;;9.10;49.90;;;;;;5046212;28;20034;-60
2021/03/18 12:28:21;;;;;;;10.85;7.03;;;9.10;49.20;;;;;;5027463;28;20080;-60
2021/03/18 12:30:48;;;;;;;9.75;6.22;;;9.20;49.50;;;;;;5035696;28;20099;-59
2021/03/18 12:33:13;;;;;;;11.60;7.25;;;9.20;48.50;;;;;;5044299;28;20037;-60
2021/03/18 12:35:39;;;;;;;10.38;6.50;;;9.20;49.00;;;;;;5044546;28;20343;-60
2021/03/18 12:38:04;;;;;;;10.88;6.20;;;9.20;48.90;;;;;;5045707;28;20066;-60
2021/03/18 12:40:30;;;;;;;10.70;6.43;;;9.10;48.10;;;;;;5044609;28;20424;-60
2021/03/18 12:42:56;;;;;;;11.75;6.80;;;9.10;49.20;;;;;;5044271;28;20061;-60
2021/03/18 12:45:22;;;;;;;10.70;6.40;;;9.10;49.30;;;;;;5044005;28;20037;-60
2021/03/18 12:47:47;;;;;;;14.30;6.43;;;9.00;48.90;;;;;;5043722;28;20037;-59